sensor_id;sensor_type;location;lat;lon;timestamp;temperature;humidity
11744;DHT22;5929;51.906;7.674;2023-04-06T00:01:12;2.00;96.30
11744;DHT22;5929;51.906;7.674;2023-04-06T00:03:39;2.10;96.20
11744;DHT22;5929;51.906;7.674;2023-04-06T00:06:09;2.20;95.90
11744;DHT22;5929;51.906;7.674;2023-04-06T00:08:37;2.10;95.80
11744;DHT22;5929;51.906;7.674;2023-04-06T00:11:04;2.10;96.10
11744;DHT22;5929;51.906;7.674;2023-04-06T00:13:31;2.10;96.20
11744;DHT22;5929;51.906;7.674;2023-04-06T00:15:58;2.10;96.40
11744;DHT22;5929;51.906;7.674;2023-04-06T00:18:25;2.10;96.70
11744;DHT22;5929;51.906;7.674;2023-04-06T00:20:52;2.10;96.80
11744;DHT22;5929;51.906;7.674;2023-04-06T00:23:20;2.10;96.70
11744;DHT22;5929;51.906;7.674;2023-04-06T00:25:47;2.10;96.80
11744;DHT22;5929;51.906;7.674;2023-04-06T00:28:14;1.90;97.00
11744;DHT22;5929;51.906;7.674;2023-04-06T00:30:41;1.80;96.60
11744;DHT22;5929;51.906;7.674;2023-04-06T00:33:08;1.80;96.60
11744;DHT22;5929;51.906;7.674;2023-04-06T00:35:35;1.70;96.60
11744;DHT22;5929;51.906;7.674;2023-04-06T00:38:02;1.70;96.70
11744;DHT22;5929;51.906;7.674;2023-04-06T00:40:30;1.60;96.90
11744;DHT22;5929;51.906;7.674;2023-04-06T00:42:58;1.60;97.00
11744;DHT22;5929;51.906;7.674;2023-04-06T00:45:25;1.50;96.90
11744;DHT22;5929;51.906;7.674;2023-04-06T00:47:52;1.50;97.20
11744;DHT22;5929;51.906;7.674;2023-04-06T00:50:19;1.50;97.30
11744;DHT22;5929;51.906;7.674;2023-04-06T00:52:46;1.50;97.20
11744;DHT22;5929;51.906;7.674;2023-04-06T00:55:13;1.50;97.20
11744;DHT22;5929;51.906;7.674;2023-04-06T00:57:41;1.50;97.10
11744;DHT22;5929;51.906;7.674;2023-04-06T01:00:08;1.50;97.40
11744;DHT22;5929;51.906;7.674;2023-04-06T01:02:36;1.50;97.20
11744;DHT22;5929;51.906;7.674;2023-04-06T01:05:03;1.40;97.00
11744;DHT22;5929;51.906;7.674;2023-04-06T01:07:30;1.40;97.10
11744;DHT22;5929;51.906;7.674;2023-04-06T01:09:58;1.40;97.10
11744;DHT22;5929;51.906;7.674;2023-04-06T01:12:25;1.30;97.10
11744;DHT22;5929;51.906;7.674;2023-04-06T01:14:55;1.20;97.20
11744;DHT22;5929;51.906;7.674;2023-04-06T01:17:22;1.30;97.30
11744;DHT22;5929;51.906;7.674;2023-04-06T01:19:49;1.20;97.10
11744;DHT22;5929;51.906;7.674;2023-04-06T01:22:20;1.20;97.20
11744;DHT22;5929;51.906;7.674;2023-04-06T01:24:47;1.10;97.40
11744;DHT22;5929;51.906;7.674;2023-04-06T01:27:14;1.10;97.60
11744;DHT22;5929;51.906;7.674;2023-04-06T01:29:41;1.20;97.30
11744;DHT22;5929;51.906;7.674;2023-04-06T01:32:08;1.20;97.40
11744;DHT22;5929;51.906;7.674;2023-04-06T01:34:35;1.20;97.60
11744;DHT22;5929;51.906;7.674;2023-04-06T01:37:02;1.20;97.80
11744;DHT22;5929;51.906;7.674;2023-04-06T01:39:30;1.10;97.80
11744;DHT22;5929;51.906;7.674;2023-04-06T01:41:57;1.10;97.70
11744;DHT22;5929;51.906;7.674;2023-04-06T01:44:24;1.10;97.60
11744;DHT22;5929;51.906;7.674;2023-04-06T01:46:51;1.10;97.50
11744;DHT22;5929;51.906;7.674;2023-04-06T01:49:18;1.00;97.30
11744;DHT22;5929;51.906;7.674;2023-04-06T01:51:45;1.00;97.40
11744;DHT22;5929;51.906;7.674;2023-04-06T01:54:12;1.00;97.70
11744;DHT22;5929;51.906;7.674;2023-04-06T01:56:40;0.90;97.40
11744;DHT22;5929;51.906;7.674;2023-04-06T01:59:07;0.90;97.40
11744;DHT22;5929;51.906;7.674;2023-04-06T02:01:34;0.90;97.70
11744;DHT22;5929;51.906;7.674;2023-04-06T02:04:00;0.80;98.00
11744;DHT22;5929;51.906;7.674;2023-04-06T02:06:27;0.80;98.00
11744;DHT22;5929;51.906;7.674;2023-04-06T02:08:54;0.80;98.30
11744;DHT22;5929;51.906;7.674;2023-04-06T02:11:21;0.80;98.60
11744;DHT22;5929;51.906;7.674;2023-04-06T02:13:49;0.80;98.80
11744;DHT22;5929;51.906;7.674;2023-04-06T02:16:16;0.80;98.90
11744;DHT22;5929;51.906;7.674;2023-04-06T02:18:43;0.80;98.90
11744;DHT22;5929;51.906;7.674;2023-04-06T02:21:10;0.80;98.90
11744;DHT22;5929;51.906;7.674;2023-04-06T02:23:38;0.70;98.90
11744;DHT22;5929;51.906;7.674;2023-04-06T02:26:05;0.70;99.00
11744;DHT22;5929;51.906;7.674;2023-04-06T02:28:31;0.70;99.10
11744;DHT22;5929;51.906;7.674;2023-04-06T02:31:02;0.70;98.90
11744;DHT22;5929;51.906;7.674;2023-04-06T02:33:29;0.70;98.80
11744;DHT22;5929;51.906;7.674;2023-04-06T02:35:56;0.70;98.60
11744;DHT22;5929;51.906;7.674;2023-04-06T02:38:23;0.70;98.90
11744;DHT22;5929;51.906;7.674;2023-04-06T02:40:49;0.60;98.60
11744;DHT22;5929;51.906;7.674;2023-04-06T02:43:16;0.60;98.50
11744;DHT22;5929;51.906;7.674;2023-04-06T02:45:43;0.50;98.40
11744;DHT22;5929;51.906;7.674;2023-04-06T02:48:11;0.50;98.60
11744;DHT22;5929;51.906;7.674;2023-04-06T02:50:38;0.50;98.70
11744;DHT22;5929;51.906;7.674;2023-04-06T02:53:05;0.50;98.50
11744;DHT22;5929;51.906;7.674;2023-04-06T02:55:32;0.50;98.50
11744;DHT22;5929;51.906;7.674;2023-04-06T02:57:59;0.60;98.70
11744;DHT22;5929;51.906;7.674;2023-04-06T03:00:26;0.50;98.70
11744;DHT22;5929;51.906;7.674;2023-04-06T03:02:53;0.50;98.90
11744;DHT22;5929;51.906;7.674;2023-04-06T03:05:22;0.50;99.10
11744;DHT22;5929;51.906;7.674;2023-04-06T03:07:48;0.40;99.10
11744;DHT22;5929;51.906;7.674;2023-04-06T03:10:15;0.50;99.20
11744;DHT22;5929;51.906;7.674;2023-04-06T03:12:42;0.50;99.50
11744;DHT22;5929;51.906;7.674;2023-04-06T03:15:10;0.40;99.40
11744;DHT22;5929;51.906;7.674;2023-04-06T03:17:37;0.40;99.50
11744;DHT22;5929;51.906;7.674;2023-04-06T03:20:06;0.30;99.30
11744;DHT22;5929;51.906;7.674;2023-04-06T03:22:35;0.30;99.20
11744;DHT22;5929;51.906;7.674;2023-04-06T03:25:02;0.30;99.20
11744;DHT22;5929;51.906;7.674;2023-04-06T03:27:28;0.30;99.30
11744;DHT22;5929;51.906;7.674;2023-04-06T03:29:55;0.30;99.60
11744;DHT22;5929;51.906;7.674;2023-04-06T03:32:22;0.30;99.70
11744;DHT22;5929;51.906;7.674;2023-04-06T03:34:49;0.30;99.80
11744;DHT22;5929;51.906;7.674;2023-04-06T03:37:16;0.30;99.90
11744;DHT22;5929;51.906;7.674;2023-04-06T03:39:44;0.30;99.90
11744;DHT22;5929;51.906;7.674;2023-04-06T03:42:11;0.30;99.90
11744;DHT22;5929;51.906;7.674;2023-04-06T03:44:38;0.30;99.90
11744;DHT22;5929;51.906;7.674;2023-04-06T03:47:07;0.20;99.90
11744;DHT22;5929;51.906;7.674;2023-04-06T03:49:34;0.20;99.90
11744;DHT22;5929;51.906;7.674;2023-04-06T03:52:01;0.30;99.90
11744;DHT22;5929;51.906;7.674;2023-04-06T03:54:28;0.30;99.90
11744;DHT22;5929;51.906;7.674;2023-04-06T03:56:56;0.40;99.90
11744;DHT22;5929;51.906;7.674;2023-04-06T03:59:23;0.30;99.90
11744;DHT22;5929;51.906;7.674;2023-04-06T04:01:52;0.20;99.90
11744;DHT22;5929;51.906;7.674;2023-04-06T04:04:19;0.30;99.90
11744;DHT22;5929;51.906;7.674;2023-04-06T04:06:46;0.20;99.90
11744;DHT22;5929;51.906;7.674;2023-04-06T04:09:13;0.20;99.90
11744;DHT22;5929;51.906;7.674;2023-04-06T04:11:40;0.30;99.90
11744;DHT22;5929;51.906;7.674;2023-04-06T04:14:08;0.30;99.90
11744;DHT22;5929;51.906;7.674;2023-04-06T04:16:35;0.30;99.90
11744;DHT22;5929;51.906;7.674;2023-04-06T04:19:02;0.30;99.90
11744;DHT22;5929;51.906;7.674;2023-04-06T04:21:29;0.30;99.90
11744;DHT22;5929;51.906;7.674;2023-04-06T04:23:57;0.20;99.90
11744;DHT22;5929;51.906;7.674;2023-04-06T04:26:24;0.10;99.90
11744;DHT22;5929;51.906;7.674;2023-04-06T04:28:51;0.20;99.90
11744;DHT22;5929;51.906;7.674;2023-04-06T04:31:21;0.20;99.90
11744;DHT22;5929;51.906;7.674;2023-04-06T04:33:49;0.00;99.90
11744;DHT22;5929;51.906;7.674;2023-04-06T04:36:15;0.10;99.90
11744;DHT22;5929;51.906;7.674;2023-04-06T04:38:42;0.00;99.90
11744;DHT22;5929;51.906;7.674;2023-04-06T04:41:09;0.10;99.90
11744;DHT22;5929;51.906;7.674;2023-04-06T04:43:36;0.00;99.90
11744;DHT22;5929;51.906;7.674;2023-04-06T04:46:04;-0.10;99.90
11744;DHT22;5929;51.906;7.674;2023-04-06T04:48:32;-0.10;99.90
11744;DHT22;5929;51.906;7.674;2023-04-06T04:50:59;-0.10;99.90
11744;DHT22;5929;51.906;7.674;2023-04-06T04:53:26;0.00;99.90
11744;DHT22;5929;51.906;7.674;2023-04-06T04:55:53;0.00;99.90
11744;DHT22;5929;51.906;7.674;2023-04-06T04:58:21;0.10;99.90
11744;DHT22;5929;51.906;7.674;2023-04-06T05:00:48;0.10;99.90
11744;DHT22;5929;51.906;7.674;2023-04-06T05:03:20;0.10;99.90
11744;DHT22;5929;51.906;7.674;2023-04-06T05:05:49;0.00;99.90
11744;DHT22;5929;51.906;7.674;2023-04-06T05:08:16;0.00;99.90
11744;DHT22;5929;51.906;7.674;2023-04-06T05:10:43;0.00;99.90
11744;DHT22;5929;51.906;7.674;2023-04-06T05:13:12;0.00;99.90
11744;DHT22;5929;51.906;7.674;2023-04-06T05:15:39;0.10;99.90
11744;DHT22;5929;51.906;7.674;2023-04-06T05:18:06;0.10;99.90
11744;DHT22;5929;51.906;7.674;2023-04-06T05:20:34;0.00;99.90
11744;DHT22;5929;51.906;7.674;2023-04-06T05:23:02;0.10;99.90
11744;DHT22;5929;51.906;7.674;2023-04-06T05:25:30;0.10;99.90
11744;DHT22;5929;51.906;7.674;2023-04-06T05:27:57;0.00;99.90
11744;DHT22;5929;51.906;7.674;2023-04-06T05:30:24;0.10;99.90
11744;DHT22;5929;51.906;7.674;2023-04-06T05:32:51;0.20;99.90
11744;DHT22;5929;51.906;7.674;2023-04-06T05:35:18;0.20;99.90
11744;DHT22;5929;51.906;7.674;2023-04-06T05:37:45;0.30;99.90
11744;DHT22;5929;51.906;7.674;2023-04-06T05:40:14;0.20;99.90
11744;DHT22;5929;51.906;7.674;2023-04-06T05:42:42;0.30;99.90
11744;DHT22;5929;51.906;7.674;2023-04-06T05:45:10;0.40;99.90
11744;DHT22;5929;51.906;7.674;2023-04-06T05:47:42;0.50;99.90
11744;DHT22;5929;51.906;7.674;2023-04-06T05:50:10;0.60;99.90
11744;DHT22;5929;51.906;7.674;2023-04-06T05:52:37;0.60;99.90
11744;DHT22;5929;51.906;7.674;2023-04-06T05:55:04;0.70;99.90
11744;DHT22;5929;51.906;7.674;2023-04-06T05:57:33;0.80;99.90
11744;DHT22;5929;51.906;7.674;2023-04-06T05:59:59;0.90;99.90
11744;DHT22;5929;51.906;7.674;2023-04-06T06:02:26;0.90;99.90
11744;DHT22;5929;51.906;7.674;2023-04-06T06:04:53;1.00;99.90
11744;DHT22;5929;51.906;7.674;2023-04-06T06:07:20;1.10;99.90
11744;DHT22;5929;51.906;7.674;2023-04-06T06:09:47;1.10;99.90
11744;DHT22;5929;51.906;7.674;2023-04-06T06:12:14;1.10;99.90
11744;DHT22;5929;51.906;7.674;2023-04-06T06:14:45;1.20;99.90
11744;DHT22;5929;51.906;7.674;2023-04-06T06:17:12;1.30;99.90
11744;DHT22;5929;51.906;7.674;2023-04-06T06:19:40;1.30;99.90
11744;DHT22;5929;51.906;7.674;2023-04-06T06:22:07;1.30;99.90
11744;DHT22;5929;51.906;7.674;2023-04-06T06:24:34;1.40;99.90
11744;DHT22;5929;51.906;7.674;2023-04-06T06:27:01;1.40;99.90
11744;DHT22;5929;51.906;7.674;2023-04-06T06:29:28;1.50;99.90
11744;DHT22;5929;51.906;7.674;2023-04-06T06:31:56;1.50;99.90
11744;DHT22;5929;51.906;7.674;2023-04-06T06:34:23;1.60;99.90
11744;DHT22;5929;51.906;7.674;2023-04-06T06:36:52;1.60;99.90
11744;DHT22;5929;51.906;7.674;2023-04-06T06:39:21;1.70;99.90
11744;DHT22;5929;51.906;7.674;2023-04-06T06:41:48;1.70;99.90
11744;DHT22;5929;51.906;7.674;2023-04-06T06:44:14;1.80;99.90
11744;DHT22;5929;51.906;7.674;2023-04-06T06:46:42;1.90;99.90
11744;DHT22;5929;51.906;7.674;2023-04-06T06:49:10;2.00;99.90
11744;DHT22;5929;51.906;7.674;2023-04-06T06:51:37;2.20;99.90
11744;DHT22;5929;51.906;7.674;2023-04-06T06:54:04;2.30;99.40
11744;DHT22;5929;51.906;7.674;2023-04-06T06:56:31;2.30;99.20
11744;DHT22;5929;51.906;7.674;2023-04-06T06:58:58;2.30;99.30
11744;DHT22;5929;51.906;7.674;2023-04-06T07:01:25;2.30;99.70
11744;DHT22;5929;51.906;7.674;2023-04-06T07:03:52;2.30;99.50
11744;DHT22;5929;51.906;7.674;2023-04-06T07:06:20;2.40;99.40
11744;DHT22;5929;51.906;7.674;2023-04-06T07:08:47;2.50;99.60
11744;DHT22;5929;51.906;7.674;2023-04-06T07:11:14;2.50;99.60
11744;DHT22;5929;51.906;7.674;2023-04-06T07:13:42;2.60;99.70
11744;DHT22;5929;51.906;7.674;2023-04-06T07:16:09;2.70;99.80
11744;DHT22;5929;51.906;7.674;2023-04-06T07:18:36;2.90;98.70
11744;DHT22;5929;51.906;7.674;2023-04-06T07:21:04;2.90;98.80
11744;DHT22;5929;51.906;7.674;2023-04-06T07:23:32;3.00;98.80
11744;DHT22;5929;51.906;7.674;2023-04-06T07:25:59;3.10;98.60
11744;DHT22;5929;51.906;7.674;2023-04-06T07:28:26;3.20;98.90
11744;DHT22;5929;51.906;7.674;2023-04-06T07:30:52;3.30;98.80
11744;DHT22;5929;51.906;7.674;2023-04-06T07:33:22;3.40;98.40
11744;DHT22;5929;51.906;7.674;2023-04-06T07:35:49;3.50;98.40
11744;DHT22;5929;51.906;7.674;2023-04-06T07:38:16;3.60;98.30
11744;DHT22;5929;51.906;7.674;2023-04-06T07:40:45;3.60;98.50
11744;DHT22;5929;51.906;7.674;2023-04-06T07:43:12;3.70;98.20
11744;DHT22;5929;51.906;7.674;2023-04-06T07:45:38;3.90;95.60
11744;DHT22;5929;51.906;7.674;2023-04-06T07:48:06;4.10;94.80
11744;DHT22;5929;51.906;7.674;2023-04-06T07:50:33;4.40;93.40
11744;DHT22;5929;51.906;7.674;2023-04-06T07:53:00;4.70;92.40
11744;DHT22;5929;51.906;7.674;2023-04-06T07:55:27;4.90;92.00
11744;DHT22;5929;51.906;7.674;2023-04-06T07:57:55;5.10;91.90
11744;DHT22;5929;51.906;7.674;2023-04-06T08:00:22;5.20;91.60
11744;DHT22;5929;51.906;7.674;2023-04-06T08:02:49;5.40;91.40
11744;DHT22;5929;51.906;7.674;2023-04-06T08:05:16;5.50;91.10
11744;DHT22;5929;51.906;7.674;2023-04-06T08:07:44;5.60;91.60
11744;DHT22;5929;51.906;7.674;2023-04-06T08:10:11;5.70;91.50
11744;DHT22;5929;51.906;7.674;2023-04-06T08:12:40;5.80;90.90
11744;DHT22;5929;51.906;7.674;2023-04-06T08:15:09;5.90;91.10
11744;DHT22;5929;51.906;7.674;2023-04-06T08:17:38;6.00;91.10
11744;DHT22;5929;51.906;7.674;2023-04-06T08:20:06;6.00;91.80
11744;DHT22;5929;51.906;7.674;2023-04-06T08:22:33;6.10;91.70
11744;DHT22;5929;51.906;7.674;2023-04-06T08:24:59;6.20;90.90
11744;DHT22;5929;51.906;7.674;2023-04-06T08:27:26;6.30;91.10
11744;DHT22;5929;51.906;7.674;2023-04-06T08:29:53;6.50;90.80
11744;DHT22;5929;51.906;7.674;2023-04-06T08:32:21;6.50;90.50
11744;DHT22;5929;51.906;7.674;2023-04-06T08:34:48;6.60;90.40
11744;DHT22;5929;51.906;7.674;2023-04-06T08:37:18;6.60;90.80
11744;DHT22;5929;51.906;7.674;2023-04-06T08:39:44;6.80;90.30
11744;DHT22;5929;51.906;7.674;2023-04-06T08:42:18;6.80;90.40
11744;DHT22;5929;51.906;7.674;2023-04-06T08:44:46;7.00;90.70
11744;DHT22;5929;51.906;7.674;2023-04-06T08:47:13;7.00;90.50
11744;DHT22;5929;51.906;7.674;2023-04-06T08:49:43;7.10;90.50
11744;DHT22;5929;51.906;7.674;2023-04-06T08:52:11;7.20;90.60
11744;DHT22;5929;51.906;7.674;2023-04-06T08:54:38;7.30;90.00
11744;DHT22;5929;51.906;7.674;2023-04-06T08:57:05;7.40;90.10
11744;DHT22;5929;51.906;7.674;2023-04-06T08:59:33;7.50;90.60
11744;DHT22;5929;51.906;7.674;2023-04-06T09:02:03;7.60;89.90
11744;DHT22;5929;51.906;7.674;2023-04-06T09:04:31;7.70;89.50
11744;DHT22;5929;51.906;7.674;2023-04-06T09:07:02;7.80;89.50
11744;DHT22;5929;51.906;7.674;2023-04-06T09:09:29;7.90;89.70
11744;DHT22;5929;51.906;7.674;2023-04-06T09:11:56;8.00;89.30
11744;DHT22;5929;51.906;7.674;2023-04-06T09:14:34;8.10;88.80
11744;DHT22;5929;51.906;7.674;2023-04-06T09:17:03;8.20;88.90
11744;DHT22;5929;51.906;7.674;2023-04-06T09:19:30;8.20;89.70
11744;DHT22;5929;51.906;7.674;2023-04-06T09:22:13;8.30;90.00
11744;DHT22;5929;51.906;7.674;2023-04-06T09:24:41;8.50;87.40
11744;DHT22;5929;51.906;7.674;2023-04-06T09:27:08;8.60;85.90
11744;DHT22;5929;51.906;7.674;2023-04-06T09:29:35;8.70;87.60
11744;DHT22;5929;51.906;7.674;2023-04-06T09:32:03;8.70;87.20
11744;DHT22;5929;51.906;7.674;2023-04-06T09:34:31;8.90;83.70
11744;DHT22;5929;51.906;7.674;2023-04-06T09:36:58;9.00;82.40
11744;DHT22;5929;51.906;7.674;2023-04-06T09:39:26;9.10;81.60
11744;DHT22;5929;51.906;7.674;2023-04-06T09:41:53;9.30;82.60
11744;DHT22;5929;51.906;7.674;2023-04-06T09:44:21;9.30;83.70
11744;DHT22;5929;51.906;7.674;2023-04-06T09:46:53;9.30;84.30
11744;DHT22;5929;51.906;7.674;2023-04-06T09:49:21;9.50;84.00
11744;DHT22;5929;51.906;7.674;2023-04-06T09:51:53;9.60;84.20
11744;DHT22;5929;51.906;7.674;2023-04-06T09:54:22;9.60;84.90
11744;DHT22;5929;51.906;7.674;2023-04-06T09:56:58;9.90;81.90
11744;DHT22;5929;51.906;7.674;2023-04-06T09:59:31;10.00;81.80
11744;DHT22;5929;51.906;7.674;2023-04-06T10:02:01;10.30;78.90
11744;DHT22;5929;51.906;7.674;2023-04-06T10:04:37;10.30;78.90
11744;DHT22;5929;51.906;7.674;2023-04-06T10:07:05;10.40;80.60
11744;DHT22;5929;51.906;7.674;2023-04-06T10:09:35;10.40;80.60
11744;DHT22;5929;51.906;7.674;2023-04-06T10:12:06;10.50;78.60
11744;DHT22;5929;51.906;7.674;2023-04-06T10:14:33;10.60;81.30
11744;DHT22;5929;51.906;7.674;2023-04-06T10:17:03;10.50;80.50
11744;DHT22;5929;51.906;7.674;2023-04-06T10:19:40;10.90;75.70
11744;DHT22;5929;51.906;7.674;2023-04-06T10:22:10;11.10;73.90
11744;DHT22;5929;51.906;7.674;2023-04-06T10:24:40;11.10;78.10
11744;DHT22;5929;51.906;7.674;2023-04-06T10:27:08;11.10;75.20
11744;DHT22;5929;51.906;7.674;2023-04-06T10:29:46;11.20;77.30
11744;DHT22;5929;51.906;7.674;2023-04-06T10:32:14;11.30;74.30
11744;DHT22;5929;51.906;7.674;2023-04-06T10:34:41;11.50;74.00
11744;DHT22;5929;51.906;7.674;2023-04-06T10:37:13;11.60;74.60
11744;DHT22;5929;51.906;7.674;2023-04-06T10:39:46;11.80;69.90
11744;DHT22;5929;51.906;7.674;2023-04-06T10:42:16;11.70;70.30
11744;DHT22;5929;51.906;7.674;2023-04-06T10:44:43;12.00;68.30
11744;DHT22;5929;51.906;7.674;2023-04-06T10:47:16;12.10;69.70
11744;DHT22;5929;51.906;7.674;2023-04-06T10:49:43;12.30;70.40
11744;DHT22;5929;51.906;7.674;2023-04-06T10:52:10;12.60;69.60
11744;DHT22;5929;51.906;7.674;2023-04-06T10:54:41;12.90;68.40
11744;DHT22;5929;51.906;7.674;2023-04-06T10:57:12;13.30;70.50
11744;DHT22;5929;51.906;7.674;2023-04-06T10:59:44;13.70;63.90
11744;DHT22;5929;51.906;7.674;2023-04-06T11:02:19;13.40;63.30
11744;DHT22;5929;51.906;7.674;2023-04-06T11:04:54;13.50;65.40
11744;DHT22;5929;51.906;7.674;2023-04-06T11:07:25;13.40;61.60
11744;DHT22;5929;51.906;7.674;2023-04-06T11:09:54;13.60;63.90
11744;DHT22;5929;51.906;7.674;2023-04-06T11:12:22;13.80;63.80
11744;DHT22;5929;51.906;7.674;2023-04-06T11:14:56;14.00;62.80
11744;DHT22;5929;51.906;7.674;2023-04-06T11:17:27;14.20;64.30
11744;DHT22;5929;51.906;7.674;2023-04-06T11:19:54;14.30;62.70
11744;DHT22;5929;51.906;7.674;2023-04-06T11:22:21;14.40;62.80
11744;DHT22;5929;51.906;7.674;2023-04-06T11:24:48;14.20;63.20
11744;DHT22;5929;51.906;7.674;2023-04-06T11:27:15;14.40;62.90
11744;DHT22;5929;51.906;7.674;2023-04-06T11:29:43;14.50;62.20
11744;DHT22;5929;51.906;7.674;2023-04-06T11:32:20;14.60;62.60
11744;DHT22;5929;51.906;7.674;2023-04-06T11:34:47;14.60;61.80
11744;DHT22;5929;51.906;7.674;2023-04-06T11:37:14;14.60;58.30
11744;DHT22;5929;51.906;7.674;2023-04-06T11:39:46;14.70;58.50
11744;DHT22;5929;51.906;7.674;2023-04-06T11:42:20;15.00;56.50
11744;DHT22;5929;51.906;7.674;2023-04-06T11:44:49;15.90;58.40
11744;DHT22;5929;51.906;7.674;2023-04-06T11:47:18;16.30;55.90
11744;DHT22;5929;51.906;7.674;2023-04-06T11:49:45;16.50;57.20
11744;DHT22;5929;51.906;7.674;2023-04-06T11:52:17;16.90;58.50
11744;DHT22;5929;51.906;7.674;2023-04-06T11:54:45;17.20;58.80
11744;DHT22;5929;51.906;7.674;2023-04-06T11:57:12;17.50;57.90
11744;DHT22;5929;51.906;7.674;2023-04-06T11:59:39;17.80;56.80
11744;DHT22;5929;51.906;7.674;2023-04-06T12:02:06;17.70;56.60
11744;DHT22;5929;51.906;7.674;2023-04-06T12:04:34;17.50;58.00
11744;DHT22;5929;51.906;7.674;2023-04-06T12:07:02;16.90;55.00
11744;DHT22;5929;51.906;7.674;2023-04-06T12:09:29;16.60;56.40
11744;DHT22;5929;51.906;7.674;2023-04-06T12:11:56;16.50;56.70
11744;DHT22;5929;51.906;7.674;2023-04-06T12:14:23;16.80;57.20
11744;DHT22;5929;51.906;7.674;2023-04-06T12:16:50;17.10;56.70
11744;DHT22;5929;51.906;7.674;2023-04-06T12:19:17;17.00;54.70
11744;DHT22;5929;51.906;7.674;2023-04-06T12:21:45;16.80;55.40
11744;DHT22;5929;51.906;7.674;2023-04-06T12:24:12;16.50;54.80
11744;DHT22;5929;51.906;7.674;2023-04-06T12:26:39;16.60;55.70
11744;DHT22;5929;51.906;7.674;2023-04-06T12:29:07;16.60;56.40
11744;DHT22;5929;51.906;7.674;2023-04-06T12:31:35;16.60;55.00
11744;DHT22;5929;51.906;7.674;2023-04-06T12:34:04;16.30;53.70
11744;DHT22;5929;51.906;7.674;2023-04-06T12:36:33;16.10;54.40
11744;DHT22;5929;51.906;7.674;2023-04-06T12:39:01;16.10;52.40
11744;DHT22;5929;51.906;7.674;2023-04-06T12:41:28;16.40;52.10
11744;DHT22;5929;51.906;7.674;2023-04-06T12:43:55;16.60;54.10
11744;DHT22;5929;51.906;7.674;2023-04-06T12:46:23;17.70;52.30
11744;DHT22;5929;51.906;7.674;2023-04-06T12:48:52;18.00;49.90
11744;DHT22;5929;51.906;7.674;2023-04-06T12:51:20;18.20;48.30
11744;DHT22;5929;51.906;7.674;2023-04-06T12:53:48;18.10;47.50
11744;DHT22;5929;51.906;7.674;2023-04-06T12:56:17;17.80;48.80
11744;DHT22;5929;51.906;7.674;2023-04-06T12:58:44;17.80;48.00
11744;DHT22;5929;51.906;7.674;2023-04-06T13:01:11;17.50;49.40
11744;DHT22;5929;51.906;7.674;2023-04-06T13:03:39;17.30;49.30
11744;DHT22;5929;51.906;7.674;2023-04-06T13:06:06;17.20;50.00
11744;DHT22;5929;51.906;7.674;2023-04-06T13:08:35;16.90;50.00
11744;DHT22;5929;51.906;7.674;2023-04-06T13:11:02;16.90;50.40
11744;DHT22;5929;51.906;7.674;2023-04-06T13:13:31;16.70;51.70
11744;DHT22;5929;51.906;7.674;2023-04-06T13:16:01;16.60;52.40
11744;DHT22;5929;51.906;7.674;2023-04-06T13:18:28;16.40;52.90
11744;DHT22;5929;51.906;7.674;2023-04-06T13:20:55;16.30;53.60
11744;DHT22;5929;51.906;7.674;2023-04-06T13:23:24;16.30;54.60
11744;DHT22;5929;51.906;7.674;2023-04-06T13:25:57;16.40;54.60
11744;DHT22;5929;51.906;7.674;2023-04-06T13:28:26;16.50;53.60
11744;DHT22;5929;51.906;7.674;2023-04-06T13:30:55;16.60;53.70
11744;DHT22;5929;51.906;7.674;2023-04-06T13:33:22;16.30;55.10
11744;DHT22;5929;51.906;7.674;2023-04-06T13:35:49;16.40;55.20
11744;DHT22;5929;51.906;7.674;2023-04-06T13:38:16;16.40;55.60
11744;DHT22;5929;51.906;7.674;2023-04-06T13:40:43;16.00;55.40
11744;DHT22;5929;51.906;7.674;2023-04-06T13:43:10;15.70;55.20
11744;DHT22;5929;51.906;7.674;2023-04-06T13:45:37;15.60;55.70
11744;DHT22;5929;51.906;7.674;2023-04-06T13:48:06;15.40;56.10
11744;DHT22;5929;51.906;7.674;2023-04-06T13:50:33;15.20;57.30
11744;DHT22;5929;51.906;7.674;2023-04-06T13:53:00;15.20;57.10
11744;DHT22;5929;51.906;7.674;2023-04-06T13:55:27;14.80;57.60
11744;DHT22;5929;51.906;7.674;2023-04-06T13:57:55;14.90;58.10
11744;DHT22;5929;51.906;7.674;2023-04-06T14:00:22;14.70;56.90
11744;DHT22;5929;51.906;7.674;2023-04-06T14:02:49;14.60;57.60
11744;DHT22;5929;51.906;7.674;2023-04-06T14:05:17;14.60;57.60
11744;DHT22;5929;51.906;7.674;2023-04-06T14:07:44;14.50;57.50
11744;DHT22;5929;51.906;7.674;2023-04-06T14:10:11;14.40;57.80
11744;DHT22;5929;51.906;7.674;2023-04-06T14:12:42;14.40;58.90
11744;DHT22;5929;51.906;7.674;2023-04-06T14:15:12;14.30;59.70
11744;DHT22;5929;51.906;7.674;2023-04-06T14:17:39;14.30;59.20
11744;DHT22;5929;51.906;7.674;2023-04-06T14:20:07;14.40;58.80
11744;DHT22;5929;51.906;7.674;2023-04-06T14:22:40;14.40;58.60
11744;DHT22;5929;51.906;7.674;2023-04-06T14:25:08;14.30;59.70
11744;DHT22;5929;51.906;7.674;2023-04-06T14:27:36;14.30;59.30
11744;DHT22;5929;51.906;7.674;2023-04-06T14:30:03;14.40;59.50
11744;DHT22;5929;51.906;7.674;2023-04-06T14:32:30;14.50;61.40
11744;DHT22;5929;51.906;7.674;2023-04-06T14:34:57;14.50;60.80
11744;DHT22;5929;51.906;7.674;2023-04-06T14:37:24;14.40;60.70
11744;DHT22;5929;51.906;7.674;2023-04-06T14:39:53;14.40;59.90
11744;DHT22;5929;51.906;7.674;2023-04-06T14:42:19;14.50;59.00
11744;DHT22;5929;51.906;7.674;2023-04-06T14:44:46;14.40;60.70
11744;DHT22;5929;51.906;7.674;2023-04-06T14:47:14;14.30;62.70
11744;DHT22;5929;51.906;7.674;2023-04-06T14:49:45;14.30;61.00
11744;DHT22;5929;51.906;7.674;2023-04-06T14:52:12;14.30;59.90
11744;DHT22;5929;51.906;7.674;2023-04-06T14:54:39;14.20;60.70
11744;DHT22;5929;51.906;7.674;2023-04-06T14:57:07;14.10;61.60
11744;DHT22;5929;51.906;7.674;2023-04-06T14:59:34;14.00;63.10
11744;DHT22;5929;51.906;7.674;2023-04-06T15:02:01;14.00;62.60
11744;DHT22;5929;51.906;7.674;2023-04-06T15:04:28;14.00;64.00
11744;DHT22;5929;51.906;7.674;2023-04-06T15:06:57;14.00;64.30
11744;DHT22;5929;51.906;7.674;2023-04-06T15:09:24;14.00;64.70
11744;DHT22;5929;51.906;7.674;2023-04-06T15:11:51;13.90;65.20
11744;DHT22;5929;51.906;7.674;2023-04-06T15:14:19;13.80;66.00
11744;DHT22;5929;51.906;7.674;2023-04-06T15:16:46;13.60;66.00
11744;DHT22;5929;51.906;7.674;2023-04-06T15:19:12;13.60;66.10
11744;DHT22;5929;51.906;7.674;2023-04-06T15:21:39;13.50;66.40
11744;DHT22;5929;51.906;7.674;2023-04-06T15:24:06;13.40;67.00
11744;DHT22;5929;51.906;7.674;2023-04-06T15:26:35;13.40;67.40
11744;DHT22;5929;51.906;7.674;2023-04-06T15:29:02;13.40;68.60
11744;DHT22;5929;51.906;7.674;2023-04-06T15:31:32;13.40;68.90
11744;DHT22;5929;51.906;7.674;2023-04-06T15:34:00;13.30;68.30
11744;DHT22;5929;51.906;7.674;2023-04-06T15:36:28;13.30;68.40
11744;DHT22;5929;51.906;7.674;2023-04-06T15:38:55;13.40;69.00
11744;DHT22;5929;51.906;7.674;2023-04-06T15:41:22;13.30;69.30
11744;DHT22;5929;51.906;7.674;2023-04-06T15:43:49;13.30;70.30
11744;DHT22;5929;51.906;7.674;2023-04-06T15:46:16;13.20;70.40
11744;DHT22;5929;51.906;7.674;2023-04-06T15:48:44;13.10;70.70
11744;DHT22;5929;51.906;7.674;2023-04-06T15:51:11;13.10;71.80
11744;DHT22;5929;51.906;7.674;2023-04-06T15:53:38;13.10;71.80
11744;DHT22;5929;51.906;7.674;2023-04-06T15:56:06;13.10;72.30
11744;DHT22;5929;51.906;7.674;2023-04-06T15:58:34;13.10;71.70